Airfield :
LOGIN :

Register | Disclaimer

   EN    FR    IT 

 










Legend :    VFR   Marginal VFR   IFR   Intensive IFR   Very Intensive IFR
Visi :
Ceiling :
>= 8 km
>= 3000ft
5 to 8 km
1000 to 3000 ft
1500m to 5 km
500 to 1000 ft
800 to 1500m
200 to 500 ft
< 800m
< 200 ft
Symbols :   Thunderstorms  Fog  Heavy snow  Heavy precipitations  Wind > 20 kt
SIGMETs :     Misc.  Thunderstorms  Icing  Turbulence  Mountain Waves  Volcanic Ashes






- Airport Elevation : 289 ft


LIRG - Guidonia

CURRENT METAR :
  • 191555Z 03005KT 9000 BKN028 FEW030CB 11/11 Q1018 RETS RMK BKN MON NE CIME INC NC VIS MIN 9000 BLU

EXPIRED METARs :
  • 191507Z 25010KT 6000 -TSRA BKN027 FEW030CB 13/09 Q1017
  • 191355Z 01003KT 9999 BKN028 13/11 Q1018 RMK BKN MON NE CIME INC NC VIS MIN 9999 BLU

TAF COR TAF LIRG
Valid from the 19 at 15:00 until the 20 at 00:00 UTC


191449Z 1915/1924 VRB05KT 9999 FEW010 BKN025
TEMPO 1915/1917 5000 TSRA BR FEW015CB BKN030



MET'MAP, your aeronautical weather chart ! - Copyright ORBIFLY December 2007 - Disclaimer

ORBIFLY MET'MAP TEAM :

Programming & Development : Alexandra Zaïnal
Concept & original design : Baudouin d'Aumeries
Assistance for programming : Marc-Olivier Méhu
Technical & hardware support : Manuel Goepfert

Contact : metmap@orbifly.com




SOURCES & CREDITS :

   NOAA